Childress Municipal Airport
KCDS : rendu visible

Aérodrome :











RETROUVEZ-NOUS SUR...

 
LOGIN :

S'inscrire | Disclaimer

   EN    FR    IT 

 









Légende :    VFR   VFR Marginal   IFR   IFR Intensif   IFR Très Intensif
Visi : 
Plafond : 
>= 8 km
>= 3000ft
5 à 8 km
1000 à 3000 ft
1500m à 5 km
500 à 1000 ft
800 à 1500m
200 à 500 ft
< 800m
< 200 ft
Symboles :   Orages  Brouillard  Fortes neiges  Fortes précipitations  Vent > 20 kt






- Altitude de l'aérodrome : 1954 ft


KCDS - Childress Municipal

METARs EXPIRÉS :
  • 271805Z AUTO 5SM BR M02/M04 A3023 RMK AO2 FZRAEMM P0001 I1001 T10171039 PWINO FZRANO $
  • 271753Z AUTO 36014G22KT 3SM FZRA BR OVC008 M02/M03 A3024 RMK AO2 UPB11E13FZRAB13 CIG 006V011 SLP257 P0005 60016 I1004 I6013 T10171033 11017 21033 58004
  • 271746Z AUTO 36018G22KT 3SM FZRA BR OVC008 M02/M03 A3023 RMK AO2 UPB11E13FZRAB13 CIG 006V011 PRESFR P0004 I1002 T10171033
  • 271729Z AUTO 01016KT 5SM -FZRA BR OVC008 M02/M03 A3025 RMK AO2 UPB11E13FZRAB13 CIG 006V011 P0002 I1000 T10171033
  • 271715Z AUTO 36017KT 5SM FZRA BR OVC008 M02/M03 A3024 RMK AO2 UPB11E13FZRAB13 CIG 006V011 PRESFR P0001 I1000 T10171033

TAF KCDS
Valide du 27 à 18h jusqu'au 28 à 18h UTC


271738Z 2718/2818 36015KT 4SM -FZDZ BR OVC007
FM280400 01011KT 2SM -FZRA OVC006
FM280900 35008KT 4SM -FZDZPL OVC007
FM281600 35008KT P6SM OVC007
FIR KZFW / Amérique du Nord



MET'MAP, la Météo Aéronautique d'un coup d'oeil ! - Copyright ORBIFLY Décembre 2007 - Disclaimer

ORBIFLY MET'MAP TEAM :

Programmation & Développement : Alexandra Zaïnal
Sur une idée originale de : Baudouin d'Aumeries
Assistance à la programmation : Marc-Olivier Méhu
Soutien technique & logistique : Manuel Goepfert

Contact : metmap@orbifly.com




SOURCES & CREDITS :

   NOAA       Earth
Advisory